Time;durP1;ratioP1;P1;durP2;ratioP2;P2;SDS_P1;SDS_P2;PMS_P1;PMS_P2;Temp;Humidity;BMP_temperature;BMP_pressure;BME280_temperature;BME280_humidity;BME280_pressure;Samples;Min_cycle;Max_cycle;Signal;HPM_P1;HPM_P2
2022/01/30 00:00:51;;;;;;;27.77;7.65;;;;;;;5.56;100.00;101694.44;5028832;28;20856;-59
2022/01/30 00:03:17;;;;;;;16.67;6.38;;;;;;;5.53;100.00;101694.47;5029398;28;20160;-59
2022/01/30 00:05:42;;;;;;;22.88;6.78;;;;;;;5.50;100.00;101710.13;5028975;28;20128;-59
2022/01/30 00:08:08;;;;;;;13.50;5.57;;;;;;;5.30;100.00;101665.13;5028209;28;20045;-59
2022/01/30 00:10:38;;;;;;;27.20;8.25;;;;;;;5.44;100.00;101694.53;5029281;28;20087;-59
2022/01/30 00:13:06;;;;;;;22.02;6.57;;;;;;;5.42;100.00;101696.28;5029557;28;20472;-59
2022/01/30 00:15:42;;;;;;;21.90;7.25;;;;;;;5.27;100.00;101671.22;5028282;28;20025;-59
2022/01/30 00:18:41;;;;;;;15.00;6.07;;;;;;;4.90;100.00;101622.91;5028692;28;20088;-59
2022/01/30 00:23:34;;;;;;;19.38;6.57;;;;;;;5.32;100.00;101707.66;5028193;28;20048;-59
2022/01/30 00:26:03;;;;;;;17.13;6.15;;;;;;;5.27;100.00;101710.31;5031282;28;20033;-59
2022/01/30 00:28:28;;;;;;;19.25;6.95;;;;;;;5.30;100.00;101720.72;5031513;28;20048;-59
2022/01/30 00:30:54;;;;;;;24.83;7.43;;;;;;;5.26;100.00;101728.56;5032540;28;20030;-59
2022/01/30 00:33:20;;;;;;;17.42;6.45;;;;;;;5.05;100.00;101704.38;5031629;28;20464;-59
2022/01/30 00:35:45;;;;;;;19.52;7.07;;;;;;;5.11;100.00;101726.91;5030665;28;20030;-59
2022/01/30 00:38:16;;;;;;;20.80;6.47;;;;;;;5.08;100.00;101735.63;5032413;28;20033;-59
2022/01/30 00:40:42;;;;;;;20.25;7.20;;;;;;;4.98;100.00;101715.72;5031530;28;20554;-59
2022/01/30 00:43:08;;;;;;;24.35;7.13;;;;;;;4.98;100.00;101726.13;5031997;28;20029;-61
2022/01/30 00:45:34;;;;;;;30.58;7.75;;;;;;;4.95;100.00;101723.53;5032284;28;20039;-60
2022/01/30 00:47:59;;;;;;;21.98;7.18;;;;;;;4.88;100.00;101719.25;5032645;28;20491;-60
2022/01/30 00:50:25;;;;;;;19.58;7.05;;;;;;;4.87;100.00;101720.09;5014388;28;20025;-60
2022/01/30 00:52:53;;;;;;;20.60;7.10;;;;;;;4.89;100.00;101726.19;5014752;28;20100;-60
2022/01/30 00:55:20;;;;;;;22.13;5.93;;;;;;;4.92;100.00;101726.16;5031591;28;20112;-61
2022/01/30 00:57:45;;;;;;;26.02;6.38;;;;;;;4.87;100.00;101740.06;5031218;28;20038;-60
2022/01/30 01:00:11;;;;;;;22.10;6.68;;;;;;;4.80;100.00;101735.78;5031106;28;20029;-60
2022/01/30 01:02:37;;;;;;;18.52;6.25;;;;;;;4.80;100.00;101748.81;5030966;28;20041;-60
2022/01/30 01:05:05;;;;;;;17.83;6.45;;;;;;;4.56;100.00;101711.56;5031268;28;20033;-60
2022/01/30 01:07:34;;;;;;;20.20;6.70;;;;;;;4.76;100.00;101745.34;5028799;28;20049;-60
2022/01/30 01:10:08;;;;;;;22.40;7.03;;;;;;;4.79;100.00;101753.16;5031560;28;20061;-60
2022/01/30 01:23:36;;;;;;;17.88;6.60;;;;;;;4.70;100.00;101760.13;5031657;28;20694;-60
2022/01/30 01:26:02;;;;;;;22.02;6.25;;;;;;;4.61;100.00;101758.41;5031128;28;20037;-60
2022/01/30 01:28:28;;;;;;;15.43;5.47;;;;;;;4.54;100.00;101746.31;5030957;28;20391;-60
2022/01/30 01:30:54;;;;;;;17.60;5.97;;;;;;;4.61;100.00;101761.91;5011524;28;20033;-60
2022/01/30 01:33:20;;;;;;;12.63;5.50;;;;;;;4.54;100.00;101759.31;5012504;28;20113;-60
2022/01/30 01:35:46;;;;;;;20.20;6.47;;;;;;;4.56;100.00;101773.22;5011907;28;20559;-60
2022/01/30 01:38:14;;;;;;;15.02;6.03;;;;;;;4.48;100.00;101770.63;5011670;28;20041;-60
2022/01/30 01:40:40;;;;;;;19.83;6.25;;;;;;;4.44;100.00;101773.22;5012200;28;20026;-60
2022/01/30 01:43:06;;;;;;;17.90;5.95;;;;;;;4.40;100.00;101772.38;5011331;28;20373;-60
2022/01/30 01:45:36;;;;;;;13.77;6.45;;;;;;;4.39;100.00;101777.59;5009410;28;20042;-60
2022/01/30 01:48:08;;;;;;;15.48;6.00;;;;;;;4.38;100.00;101768.91;5010690;28;20034;-60
2022/01/30 01:50:40;;;;;;;18.35;6.85;;;;;;;4.35;100.00;101768.94;5011324;28;20037;-60
2022/01/30 01:53:11;;;;;;;19.48;5.90;;;;;;;4.22;100.00;101741.22;5011861;28;20038;-60
2022/01/30 01:55:37;;;;;;;16.05;6.07;;;;;;;4.36;100.00;101772.41;5010857;28;20133;-60
2022/01/30 01:58:04;;;;;;;27.52;6.43;;;;;;;4.38;100.00;101768.03;5009980;28;20033;-60
2022/01/30 02:00:29;;;;;;;25.27;6.03;;;;;;;4.06;100.00;101726.50;5011306;28;20520;-60
2022/01/30 02:02:55;;;;;;;24.17;7.15;;;;;;;4.32;100.00;101773.28;5004062;28;20095;-60
2022/01/30 02:05:26;;;;;;;18.60;6.30;;;;;;;4.28;100.00;101776.75;5010183;28;20050;-60
2022/01/30 02:10:24;;;;;;;16.00;6.40;;;;;;;4.03;100.00;101729.09;5009540;28;20037;-60
2022/01/30 02:12:52;;;;;;;15.95;5.65;;;;;;;4.23;100.00;101766.34;5011282;28;20033;-60
2022/01/30 02:26:04;;;;;;;27.88;6.85;;;;;;;4.16;100.00;101771.59;5010245;28;20045;-60
2022/01/30 02:28:32;;;;;;;22.40;6.88;;;;;;;4.11;100.00;101769.84;5010987;28;20065;-60
2022/01/30 02:31:02;;;;;;;24.75;5.70;;;;;;;4.08;100.00;101771.59;5010946;28;20034;-60
2022/01/30 02:33:27;;;;;;;25.52;7.75;;;;;;;4.07;100.00;101770.72;5011598;28;20030;-60
2022/01/30 02:35:53;;;;;;;23.90;7.20;;;;;;;4.08;100.00;101769.84;5011392;28;20030;-60
2022/01/30 02:38:23;;;;;;;21.95;6.28;;;;;;;4.05;100.00;101774.19;5011044;28;20096;-60
2022/01/30 02:40:51;;;;;;;18.63;6.85;;;;;;;3.79;100.00;101740.41;5010851;28;20141;-60
2022/01/30 02:43:21;;;;;;;14.35;6.45;;;;;;;3.95;100.00;101762.94;5010135;28;20037;-60
2022/01/30 02:46:20;;;;;;;22.98;6.13;;;;;;;3.92;100.00;101765.53;5010805;28;20346;-60
2022/01/30 02:48:57;;;;;;;17.73;6.72;;;;;;;3.97;100.00;101763.78;5005153;28;20411;-60
2022/01/30 02:51:23;;;;;;;25.75;7.32;;;;;;;3.96;100.00;101758.59;5010743;28;20032;-60
2022/01/30 02:54:02;;;;;;;27.27;6.70;;;;;;;3.99;100.00;101758.56;4988911;28;20437;-60
2022/01/30 02:56:29;;;;;;;16.85;6.50;;;;;;;4.00;100.00;101761.19;5010228;28;20484;-60
2022/01/30 02:58:54;;;;;;;16.10;6.07;;;;;;;3.96;100.00;101769.84;5010458;28;20104;-60
2022/01/30 03:01:19;;;;;;;19.75;6.38;;;;;;;3.95;100.00;101770.75;5011442;28;20449;-60
2022/01/30 03:03:45;;;;;;;18.67;5.90;;;;;;;3.93;100.00;101777.66;5011031;28;20033;-60
2022/01/30 03:06:10;;;;;;;10.60;5.32;;;;;;;3.92;100.00;101775.91;5009804;28;20041;-60
2022/01/30 03:08:35;;;;;;;12.48;5.75;;;;;;;3.90;100.00;101793.25;5009475;28;20508;-60
2022/01/30 03:11:01;;;;;;;15.82;6.85;;;;;;;3.85;100.00;101787.19;5009303;28;20025;-60
2022/01/30 03:13:26;;;;;;;18.05;6.38;;;;;;;3.71;100.00;101773.34;5005401;28;20030;-60
2022/01/30 03:15:52;;;;;;;20.65;6.15;;;;;;;3.80;100.00;101799.34;5004734;28;20029;-60
2022/01/30 03:18:17;;;;;;;25.08;6.50;;;;;;;3.87;100.00;101801.06;5009499;28;20030;-60
2022/01/30 03:20:42;;;;;;;27.17;6.57;;;;;;;3.91;100.00;101799.34;5009042;28;20038;-60
2022/01/30 03:23:08;;;;;;;23.88;6.18;;;;;;;3.84;100.00;101795.00;5009286;28;20125;-60
2022/01/30 03:25:34;;;;;;;25.27;7.18;;;;;;;3.75;100.00;101801.06;5009703;28;20071;-60
2022/01/30 03:28:01;;;;;;;21.08;6.78;;;;;;;3.48;100.00;101770.72;5010737;28;20033;-60
2022/01/30 03:30:30;;;;;;;15.05;6.47;;;;;;;3.69;100.00;101802.78;5008644;28;20037;-60
2022/01/30 03:32:55;;;;;;;20.75;6.28;;;;;;;3.68;100.00;101809.75;5010220;28;20030;-60
2022/01/30 03:35:21;;;;;;;18.52;6.82;;;;;;;3.73;100.00;101812.31;5009419;28;20042;-60
2022/01/30 03:37:46;;;;;;;19.50;5.93;;;;;;;3.72;100.00;101814.06;5005331;28;20036;-60
2022/01/30 03:40:12;;;;;;;23.27;6.25;;;;;;;3.65;100.00;101825.31;5008943;28;20028;-60
2022/01/30 03:42:38;;;;;;;17.42;6.90;;;;;;;3.68;100.00;101824.47;5008917;28;20126;-60
2022/01/30 03:45:04;;;;;;;15.55;6.13;;;;;;;3.69;100.00;101823.56;5008053;28;20026;-60
2022/01/30 03:47:29;;;;;;;20.00;6.45;;;;;;;3.71;100.00;101830.53;5010368;28;20022;-60
2022/01/30 03:49:54;;;;;;;23.83;6.05;;;;;;;3.71;100.00;101827.94;5010188;28;20049;-60
2022/01/30 03:52:20;;;;;;;18.50;5.75;;;;;;;3.75;100.00;101829.66;5009774;28;20040;-60
2022/01/30 03:54:45;;;;;;;18.55;6.32;;;;;;;3.70;100.00;101839.19;5008710;28;20030;-60
2022/01/30 03:57:11;;;;;;;27.65;6.70;;;;;;;3.67;100.00;101833.13;5009320;28;20065;-60
2022/01/30 03:59:37;;;;;;;17.20;6.07;;;;;;;3.67;100.00;101839.19;5010149;28;20030;-60
2022/01/30 04:02:03;;;;;;;22.90;6.88;;;;;;;3.65;100.00;101829.66;5014414;28;20040;-60
2022/01/30 04:04:29;;;;;;;18.08;6.85;;;;;;;3.66;100.00;101837.44;5013491;28;20048;-60
2022/01/30 04:06:57;;;;;;;24.80;6.45;;;;;;;3.64;100.00;101846.97;5013020;28;20038;-60
2022/01/30 04:09:24;;;;;;;15.20;5.85;;;;;;;3.46;100.00;101826.16;5013090;28;20029;-60
2022/01/30 04:11:50;;;;;;;23.25;7.03;;;;;;;3.57;100.00;101850.44;5012581;28;20486;-60
2022/01/30 04:14:15;;;;;;;19.33;5.90;;;;;;;3.55;100.00;101844.34;5013490;28;20038;-60
2022/01/30 04:16:41;;;;;;;29.35;6.88;;;;;;;3.56;100.00;101856.47;5013366;28;20441;-60
2022/01/30 04:19:07;;;;;;;26.27;5.75;;;;;;;3.46;100.00;101844.34;5011783;28;20041;-60
2022/01/30 04:21:32;;;;;;;15.27;5.65;;;;;;;3.51;100.00;101858.22;5013313;28;20034;-60
2022/01/30 04:23:58;;;;;;;24.02;6.35;;;;;;;3.47;100.00;101861.66;5013262;28;20026;-60
2022/01/30 04:26:23;;;;;;;22.35;6.30;;;;;;;3.48;100.00;101860.81;5011026;28;20092;-60
2022/01/30 04:28:49;;;;;;;19.67;6.05;;;;;;;3.47;100.00;101857.34;5013210;28;20425;-59
2022/01/30 04:31:14;;;;;;;18.10;6.32;;;;;;;3.52;100.00;101863.41;5012209;28;20057;-60
2022/01/30 04:33:40;;;;;;;20.27;6.57;;;;;;;3.58;100.00;101860.81;4994735;28;20033;-60
2022/01/30 04:36:09;;;;;;;20.38;5.85;;;;;;;3.62;100.00;101855.66;4970614;28;20049;-60
2022/01/30 04:38:52;;;;;;;16.38;6.20;;;;;;;3.67;100.00;101857.38;4972433;28;20030;-59
2022/01/30 04:41:35;;;;;;;29.13;6.93;;;;;;;3.45;100.00;101793.22;4971048;28;20032;-59
2022/01/30 05:05:50;;;;;;;14.05;5.60;;;;;;;4.09;100.00;101874.72;4989269;28;20063;-59
2022/01/30 05:08:16;;;;;;;25.38;5.75;;;;;;;4.06;100.00;101872.13;4990149;28;20025;-59
2022/01/30 05:10:41;;;;;;;21.92;6.60;;;;;;;4.07;100.00;101881.66;4988264;28;20036;-59
2022/01/30 05:13:11;;;;;;;18.20;5.25;;;;;;;4.12;100.00;101882.56;4989791;28;20088;-59
2022/01/30 05:15:36;;;;;;;27.65;7.10;;;;;;;4.16;100.00;101888.63;4989777;28;20087;-59
2022/01/30 05:18:02;;;;;;;22.10;6.07;;;;;;;4.13;100.00;101886.88;4989300;28;20880;-59
2022/01/30 05:20:29;;;;;;;18.30;5.78;;;;;;;4.13;100.00;101887.75;4989614;28;20887;-58
2022/01/30 05:22:55;;;;;;;30.77;5.85;;;;;;;4.13;100.00;101892.06;4989732;28;20087;-58
2022/01/30 05:25:21;;;;;;;24.20;6.82;;;;;;;3.99;100.00;101873.84;4989743;28;20128;-58
2022/01/30 05:27:47;;;;;;;13.35;6.07;;;;;;;4.11;100.00;101889.47;4988901;28;20317;-58
2022/01/30 05:30:12;;;;;;;12.18;5.10;;;;;;;4.09;100.00;101890.31;4989657;28;20059;-58
2022/01/30 05:32:38;;;;;;;16.15;4.88;;;;;;;3.67;100.00;101818.41;5007522;28;20042;-59
2022/01/30 05:35:04;;;;;;;13.43;5.43;;;;;;;3.95;100.00;101866.06;5010447;28;20056;-59
2022/01/30 05:37:30;;;;;;;22.55;5.82;;;;;;;4.10;100.00;101897.28;5010653;28;20476;-58
2022/01/30 05:39:55;;;;;;;19.25;6.97;;;;;;;4.10;100.00;101887.75;5009859;28;20373;-58
2022/01/30 05:42:23;;;;;;;21.60;5.93;;;;;;;4.13;100.00;101887.75;5009301;28;20084;-60
2022/01/30 05:47:56;;;;;;;15.90;4.85;;;;;;;4.03;100.00;101885.13;4999097;28;20041;-60
2022/01/30 05:50:22;;;;;;;11.75;5.45;;;;;;;3.86;100.00;101885.13;5010493;28;20034;-60
2022/01/30 05:52:47;;;;;;;13.40;5.47;;;;;;;3.92;100.00;101907.69;5009747;28;20436;-60
2022/01/30 05:55:13;;;;;;;23.30;6.50;;;;;;;3.91;100.00;101917.22;5008289;28;20042;-60
2022/01/30 05:57:38;;;;;;;16.73;6.63;;;;;;;3.91;100.00;101925.00;5008655;28;20076;-60
2022/01/30 06:00:06;;;;;;;11.95;5.05;;;;;;;3.89;100.00;101918.91;5009031;28;20427;-60
2022/01/30 06:02:33;;;;;;;17.98;6.07;;;;;;;3.60;100.00;101879.03;5009152;28;20040;-60
2022/01/30 06:04:58;;;;;;;19.50;5.85;;;;;;;3.75;100.00;101912.81;5007865;28;20141;-60
2022/01/30 06:07:29;;;;;;;13.73;5.68;;;;;;;3.67;100.00;101913.69;5007658;28;20124;-60
2022/01/30 06:09:54;;;;;;;16.65;6.05;;;;;;;3.56;100.00;101916.25;5007750;28;20088;-60
2022/01/30 06:12:19;;;;;;;16.48;6.05;;;;;;;3.42;100.00;101920.53;5008010;28;20029;-60
2022/01/30 06:14:46;;;;;;;12.63;4.80;;;;;;;3.33;100.00;101925.69;5008101;28;20506;-60
2022/01/30 06:17:12;;;;;;;22.40;5.82;;;;;;;3.20;100.00;101923.91;5007486;28;20819;-60
2022/01/30 06:19:38;;;;;;;22.60;5.93;;;;;;;3.14;100.00;101913.50;4999972;28;20029;-60
2022/01/30 06:22:03;;;;;;;19.45;6.40;;;;;;;3.01;100.00;101923.81;5008226;28;20068;-60
2022/01/30 06:24:29;;;;;;;26.13;5.03;;;;;;;2.97;100.00;101924.66;5009065;28;20038;-60
2022/01/30 06:26:54;;;;;;;14.55;5.32;;;;;;;2.91;100.00;101927.22;5009688;28;20076;-60
2022/01/30 06:29:20;;;;;;;21.63;6.18;;;;;;;2.92;100.00;101925.50;5008422;28;20494;-60
2022/01/30 06:31:45;;;;;;;15.48;6.15;;;;;;;2.90;100.00;101922.91;5007526;28;20053;-60
2022/01/30 06:34:10;;;;;;;17.33;6.57;;;;;;;2.83;100.00;101928.94;5007205;28;20065;-60
2022/01/30 06:36:36;;;;;;;21.75;5.60;;;;;;;2.80;100.00;101926.31;5006409;28;20034;-60
2022/01/30 06:39:01;;;;;;;23.20;5.88;;;;;;;2.64;100.00;101910.66;5006850;28;20048;-60
2022/01/30 06:41:27;;;;;;;20.67;6.38;;;;;;;2.76;100.00;101911.56;5006948;28;20029;-60
2022/01/30 06:43:52;;;;;;;14.95;5.78;;;;;;;2.85;100.00;101922.00;5011064;28;20525;-60
2022/01/30 06:46:17;;;;;;;18.00;6.00;;;;;;;2.82;100.00;101929.78;5008324;28;20030;-60
2022/01/30 06:48:43;;;;;;;18.42;5.53;;;;;;;2.75;100.00;101940.97;5010556;28;20036;-60
2022/01/30 06:51:08;;;;;;;19.80;5.63;;;;;;;2.69;100.00;101940.06;5006956;28;20088;-60
2022/01/30 06:53:33;;;;;;;16.60;5.35;;;;;;;2.68;100.00;101935.72;5006518;28;20404;-60
2022/01/30 06:55:59;;;;;;;17.40;5.65;;;;;;;2.39;100.00;101899.22;5005273;28;20033;-60
2022/01/30 06:58:24;;;;;;;23.48;6.38;;;;;;;2.22;100.00;101872.28;4991450;28;20029;-60
2022/01/30 07:00:50;;;;;;;17.65;5.10;;;;;;;2.32;100.00;101892.25;5007101;28;20061;-60
2022/01/30 07:03:15;;;;;;;24.83;5.47;;;;;;;2.59;100.00;101944.31;5008340;28;20049;-60
2022/01/30 07:05:41;;;;;;;15.60;6.35;;;;;;;2.53;100.00;101952.91;5006628;28;20045;-60
2022/01/30 07:08:06;;;;;;;20.85;5.85;;;;;;;2.50;100.00;101952.06;5006504;28;20026;-60
2022/01/30 07:10:31;;;;;;;23.95;6.05;;;;;;;2.48;100.00;101945.97;5007392;28;20088;-60
2022/01/30 07:12:57;;;;;;;14.52;5.50;;;;;;;2.40;100.00;101947.66;5007945;28;20041;-60
2022/01/30 07:15:22;;;;;;;20.85;6.07;;;;;;;2.29;100.00;101941.50;5007324;28;20037;-60
2022/01/30 07:17:48;;;;;;;19.58;5.90;;;;;;;2.33;100.00;101946.69;5006363;28;20049;-59
2022/01/30 07:20:13;;;;;;;17.83;5.38;;;;;;;2.32;100.00;101949.28;5006326;28;20030;-60
2022/01/30 07:22:39;;;;;;;13.57;4.75;;;;;;;2.22;100.00;101968.22;5005424;28;20137;-60
2022/01/30 07:25:06;;;;;;;17.23;4.88;;;;;;;2.14;100.00;101970.75;5003696;28;20112;-60
2022/01/30 07:27:32;;;;;;;18.23;5.32;;;;;;;2.10;100.00;101971.56;5004996;28;20040;-60
2022/01/30 07:29:57;;;;;;;24.67;6.10;;;;;;;2.09;100.00;101971.56;5004795;28;20042;-60
2022/01/30 07:32:22;;;;;;;14.73;5.53;;;;;;;2.09;100.00;101977.63;5005635;28;20388;-60
2022/01/30 07:34:51;;;;;;;20.13;5.18;;;;;;;2.10;100.00;101978.47;5004314;28;20038;-60
2022/01/30 07:37:16;;;;;;;10.68;4.80;;;;;;;2.08;100.00;101990.56;4997230;28;20026;-59
2022/01/30 07:39:42;;;;;;;17.25;6.03;;;;;;;2.11;100.00;101986.25;4976947;28;20883;-60
2022/01/30 07:42:07;;;;;;;16.58;5.97;;;;;;;2.15;100.00;101976.78;4969883;28;20085;-59
2022/01/30 07:44:33;;;;;;;25.77;6.25;;;;;;;2.06;100.00;101946.50;4988051;28;20143;-60
2022/01/30 07:46:58;;;;;;;16.80;5.45;;;;;;;2.32;100.00;101985.59;5005772;28;20872;-60
2022/01/30 07:49:23;;;;;;;15.77;5.68;;;;;;;2.35;100.00;101986.50;5008568;28;20079;-59
2022/01/30 07:51:49;;;;;;;20.55;6.00;;;;;;;2.34;100.00;101986.47;5008302;28;20897;-60
2022/01/30 07:54:14;;;;;;;12.27;4.75;;;;;;;2.38;100.00;101996.03;5008534;28;20233;-60
2022/01/30 07:56:40;;;;;;;21.52;5.22;;;;;;;2.41;100.00;101996.03;5008341;28;20094;-60
2022/01/30 07:59:05;;;;;;;23.85;6.10;;;;;;;2.37;100.00;102009.84;5008060;28;20025;-59
2022/01/30 08:01:31;;;;;;;11.23;5.07;;;;;;;2.17;100.00;101981.13;4991932;28;20092;-60
2022/01/30 08:03:56;;;;;;;17.15;5.85;;;;;;;2.28;100.00;101989.00;4969608;28;20034;-60
2022/01/30 08:06:22;;;;;;;27.02;6.78;;;;;;;2.32;100.00;102001.16;4969875;28;20881;-60
2022/01/30 08:08:47;;;;;;;22.33;5.18;;;;;;;1.95;100.00;101948.09;4977327;28;20876;-60
2022/01/30 08:11:13;;;;;;;22.92;6.47;;;;;;;2.29;100.00;102011.50;4985286;28;20061;-60
2022/01/30 08:13:38;;;;;;;21.08;6.13;;;;;;;2.30;100.00;102023.63;4988940;28;20068;-60
2022/01/30 08:16:04;;;;;;;17.02;6.72;;;;;;;2.35;100.00;102020.22;4989423;28;20572;-64
2022/01/30 08:18:29;;;;;;;16.42;7.55;;;;;;;2.32;100.00;102016.72;4989170;28;20884;-64
2022/01/30 08:20:55;;;;;;;12.25;6.18;;;;;;;2.44;100.00;102022.00;4991200;28;20820;-63
2022/01/30 08:23:23;;;;;;;24.60;7.05;;;;;;;2.08;100.00;101954.25;5002195;28;20124;-63
2022/01/30 08:25:48;;;;;;;19.95;7.03;;;;;;;2.39;100.00;102015.94;5003288;28;20041;-63
2022/01/30 08:28:14;;;;;;;34.20;8.30;;;;;;;2.27;100.00;101992.44;5003881;28;20030;-63
2022/01/30 08:30:39;;;;;;;16.90;5.95;;;;;;;2.44;100.00;102011.63;5001692;28;20029;-63
2022/01/30 08:33:05;;;;;;;17.25;6.78;;;;;;;2.47;100.00;102014.25;5000076;28;20033;-63
2022/01/30 08:35:31;;;;;;;17.02;6.45;;;;;;;2.38;100.00;101989.13;5003512;28;20038;-60
2022/01/30 08:37:58;;;;;;;18.73;6.50;;;;;;;2.57;100.00;102018.66;5001754;28;20128;-60
2022/01/30 08:40:23;;;;;;;21.95;6.18;;;;;;;2.64;100.00;102020.47;4991008;28;20965;-63
2022/01/30 08:42:49;;;;;;;14.82;6.90;;;;;;;2.74;100.00;102017.06;4988796;28;20029;-60
2022/01/30 08:45:16;;;;;;;26.90;6.85;;;;;;;2.80;100.00;102014.56;4987066;28;20420;-60
2022/01/30 08:47:44;;;;;;;23.80;7.53;;;;;;;2.82;100.00;102010.22;4990670;28;20029;-60
2022/01/30 08:50:10;;;;;;;33.15;6.85;;;;;;;2.87;100.00;102007.69;4991600;28;20601;-60
2022/01/30 08:52:36;;;;;;;15.55;5.68;;;;;;;2.32;100.00;101902.63;4991163;28;20029;-60
2022/01/30 08:55:04;;;;;;;23.88;7.00;;;;;;;3.04;100.00;102012.09;4991139;28;20039;-60
2022/01/30 08:57:29;;;;;;;26.10;6.63;;;;;;;3.13;100.00;102016.50;4989899;28;20026;-60
2022/01/30 08:59:55;;;;;;;13.48;5.00;;;;;;;3.27;100.00;102024.38;4991400;28;20978;-60
2022/01/30 09:02:22;;;;;;;15.48;5.50;;;;;;;3.33;100.00;102034.78;4990656;28;20033;-60
2022/01/30 09:04:48;;;;;;;30.50;6.75;;;;;;;3.45;100.00;102029.66;4991643;28;20033;-60
2022/01/30 09:07:14;;;;;;;17.80;5.60;;;;;;;3.53;100.00;102025.38;4992135;28;20025;-60
2022/01/30 09:09:39;;;;;;;14.18;5.20;;;;;;;3.65;100.00;102027.19;4991395;28;20022;-60
2022/01/30 09:12:05;;;;;;;19.05;5.78;;;;;;;3.71;100.00;102028.06;4990946;28;20029;-60
2022/01/30 09:14:31;;;;;;;12.93;5.10;;;;;;;3.81;100.00;102040.25;4990763;28;20556;-60
2022/01/30 09:16:56;;;;;;;21.27;5.63;;;;;;;3.91;100.00;102042.00;4991497;28;20033;-60
2022/01/30 09:19:22;;;;;;;15.65;5.32;;;;;;;3.97;100.00;102034.22;4991261;28;20141;-60
2022/01/30 09:21:47;;;;;;;20.92;5.82;;;;;;;4.14;100.00;102034.25;4989182;28;20030;-60
2022/01/30 09:24:14;;;;;;;19.73;5.90;;;;;;;4.21;100.00;102051.63;4988917;28;20056;-60
2022/01/30 09:26:39;;;;;;;18.70;5.43;;;;;;;4.25;100.00;102049.91;4989411;28;20737;-60
2022/01/30 09:29:05;;;;;;;16.83;5.50;;;;;;;4.33;100.00;102055.97;4991054;28;20036;-60
2022/01/30 09:31:30;;;;;;;22.08;5.10;;;;;;;4.48;100.00;102056.00;4988963;28;20040;-60
2022/01/30 09:33:55;;;;;;;15.73;4.63;;;;;;;4.55;100.00;102052.56;4990072;28;20033;-60
2022/01/30 09:36:21;;;;;;;15.48;4.80;;;;;;;4.66;100.00;102066.47;4989554;28;20850;-60
2022/01/30 09:38:46;;;;;;;27.05;5.57;;;;;;;4.69;100.00;102069.06;4989478;28;20025;-60
2022/01/30 09:41:12;;;;;;;16.02;4.43;;;;;;;4.74;100.00;102063.84;4990228;28;20029;-60
2022/01/30 09:43:38;;;;;;;19.10;4.93;;;;;;;4.88;100.00;102065.59;4989386;28;20041;-60
2022/01/30 09:46:04;;;;;;;15.63;5.68;;;;;;;4.94;100.00;102062.97;4988782;28;20096;-60
2022/01/30 09:48:35;;;;;;;12.55;4.90;;;;;;;4.98;100.00;102072.53;4990163;28;20151;-60
2022/01/30 09:51:04;;;;;;;14.73;5.55;;;;;;;5.03;100.00;102072.53;4989569;28;20910;-60
2022/01/30 09:53:32;;;;;;;11.35;4.25;;;;;;;5.06;100.00;102075.13;4989149;28;20095;-60
2022/01/30 09:55:57;;;;;;;21.45;5.95;;;;;;;5.15;100.00;102073.38;4987221;28;20036;-60
2022/01/30 09:58:22;;;;;;;13.93;4.72;;;;;;;5.26;100.00;102082.94;4989003;28;20053;-60
2022/01/30 10:00:48;;;;;;;19.05;6.18;;;;;;;5.34;100.00;102079.41;4989526;28;20076;-60
2022/01/30 10:03:20;;;;;;;18.92;5.40;;;;;;;5.49;100.00;102088.97;4987914;28;20033;-60
2022/01/30 10:06:06;;;;;;;22.10;5.43;;;;;;;5.57;100.00;102082.88;4987530;28;20385;-60
2022/01/30 10:08:32;;;;;;;14.95;6.55;;;;;;;5.68;100.00;102085.41;4988060;28;20030;-60
2022/01/30 10:11:01;;;;;;;12.70;4.50;;;;;;;5.75;100.00;102091.47;4987618;28;20029;-60
2022/01/30 10:13:30;;;;;;;18.15;6.10;;;;;;;5.78;100.00;102079.31;4988991;28;20033;-60
2022/01/30 10:16:02;;;;;;;20.17;5.78;;;;;;;5.86;100.00;102093.22;4989955;28;20029;-60
2022/01/30 10:18:32;;;;;;;15.35;5.72;;;;;;;5.87;100.00;102101.94;4987197;28;20174;-60
2022/01/30 10:20:58;;;;;;;14.55;5.80;;;;;;;5.92;100.00;102103.63;4988899;28;20064;-60
2022/01/30 10:23:36;;;;;;;15.75;5.28;;;;;;;5.97;100.00;102109.72;4987740;28;20041;-60
2022/01/30 10:26:07;;;;;;;15.05;5.13;;;;;;;6.05;100.00;102102.72;4988811;28;20136;-60
2022/01/30 10:28:33;;;;;;;12.52;5.70;;;;;;;6.17;100.00;102109.63;4989037;28;20025;-61
2022/01/30 10:31:07;;;;;;;19.75;4.82;;;;;;;6.22;100.00;102118.28;4998415;28;20132;-62
2022/01/30 10:33:41;;;;;;;19.38;5.88;;;;;;;6.05;100.00;102079.22;4993272;28;20038;-62
2022/01/30 10:36:11;;;;;;;12.32;5.13;;;;;;;6.33;100.00;102102.56;4978991;28;20040;-61
2022/01/30 10:38:40;;;;;;;16.40;5.38;;;;;;;6.39;100.00;102102.53;4978505;28;20040;-59
2022/01/30 10:41:17;;;;;;;11.65;4.88;;;;;;;6.51;100.00;102112.94;4984463;28;20045;-60
2022/01/30 10:43:48;;;;;;;17.13;6.00;;;;;;;6.52;100.00;102105.06;4967507;28;20038;-60
2022/01/30 10:46:22;;;;;;;11.18;3.88;;;;;;;6.53;100.00;102105.94;4976594;28;20030;-60
2022/01/30 10:49:11;;;;;;;17.45;5.55;;;;;;;6.64;100.00;102109.38;4978596;28;20029;-60
2022/01/30 10:51:37;;;;;;;20.92;6.80;;;;;;;6.73;100.00;102101.47;4995270;28;20087;-61
2022/01/30 10:54:11;;;;;;;15.15;4.78;;;;;;;6.90;100.00;102107.44;4990570;28;20132;-62
2022/01/30 10:56:37;;;;;;;11.90;5.32;;;;;;;7.16;100.00;102099.41;4988453;28;20041;-62
2022/01/30 10:59:06;;;;;;;15.80;5.57;;;;;;;7.39;100.00;102088.72;4981671;28;20144;-60
2022/01/30 11:01:32;;;;;;;16.58;5.93;;;;;;;7.53;100.00;102092.06;4975589;28;20857;-60
2022/01/30 11:04:00;;;;;;;14.48;5.15;;;;;;;7.64;100.00;102085.81;4971191;28;20065;-60
2022/01/30 11:06:27;;;;;;;20.15;5.78;;;;;;;7.88;100.00;102089.91;4968003;28;20025;-60
2022/01/30 11:08:54;;;;;;;11.75;4.57;;;;;;;7.82;100.00;102082.13;4972312;28;20115;-60
2022/01/30 11:14:35;;;;;;;12.52;5.50;;;;;;;7.52;100.00;102058.94;4977792;28;20041;-59
2022/01/30 11:16:56;;;;;;;17.45;4.93;;;;;;;7.59;100.00;102065.84;4974405;28;20833;-61
2022/01/30 11:19:22;;;;;;;18.38;5.55;;;;;;;7.72;100.00;102070.03;4972218;28;20027;-60
2022/01/30 11:21:50;;;;;;;13.00;5.32;;;;;;;7.83;100.00;102047.22;4979422;28;20041;-60
2022/01/30 11:24:17;;;;;;;14.45;4.70;;;;;;;8.00;100.00;102054.88;4988718;28;20029;-60
2022/01/30 11:26:44;;;;;;;8.90;4.47;;;;;;;7.81;100.00;102048.97;4977146;28;20199;-62
2022/01/30 11:29:11;;;;;;;11.32;4.95;;;;;;;7.56;100.00;102055.41;4989713;28;20029;-62
2022/01/30 11:31:36;;;;;;;16.75;5.72;;;;;;;7.03;100.00;101995.84;4991883;28;20278;-61
2022/01/30 11:34:03;;;;;;;13.85;5.35;;;;;;;7.18;100.00;102056.66;4993435;28;20025;-59
2022/01/30 11:36:29;;;;;;;14.95;6.43;;;;;;;6.74;100.00;102011.78;4991530;28;20044;-62
2022/01/30 11:38:55;;;;;;;16.60;4.90;;;;;;;6.83;100.00;102058.72;4989445;28;20052;-61
2022/01/30 11:41:21;;;;;;;15.85;5.18;;;;;;;6.70;100.00;102062.31;4994010;28;20522;-61
2022/01/30 11:44:17;;;;;;;22.85;5.93;;;;;;;6.54;100.00;102055.47;4979977;28;20559;-60
2022/01/30 11:47:03;;;;;;;10.43;4.88;;;;;;;6.45;100.00;102040.75;4992175;28;20804;-59
2022/01/30 11:49:42;;;;;;;27.40;6.57;;;;;;;6.27;100.00;101982.56;4972085;28;20038;-60
2022/01/30 11:52:11;;;;;;;22.65;6.63;;;;;;;6.81;100.00;102000.41;4974055;28;21011;-60
2022/01/30 11:54:40;;;;;;;12.52;4.63;;;;;;;7.52;100.00;102020.56;4983771;28;20134;-60
2022/01/30 11:57:20;;;;;;;15.10;4.97;;;;;;;8.03;100.00;102026.03;4985856;28;21076;-60
2022/01/30 11:59:50;;;;;;;16.25;5.28;;;;;;;8.44;100.00;102020.22;4972828;28;20413;-60
2022/01/30 12:02:32;;;;;;;15.27;5.20;;;;;;;9.39;100.00;102017.72;4969841;28;20026;-61
2022/01/30 12:05:03;;;;;;;20.20;6.47;;;;;;;10.03;100.00;102014.63;4966623;28;20092;-61
2022/01/30 12:07:48;;;;;;;11.25;5.03;;;;;;;9.81;100.00;102008.94;4977993;28;20901;-60
2022/01/30 12:10:19;;;;;;;12.55;4.72;;;;;;;9.59;100.00;102015.56;4986315;28;20038;-61
2022/01/30 12:12:55;;;;;;;13.35;5.32;;;;;;;9.41;100.00;102008.03;4987433;28;20041;-61